Penticton Airport
CYYF : now visible

Airfield :











YOU CAN JOIN US ON...

 
LOGIN :

Register | Disclaimer

   EN    FR    IT 

 









Legend :    VFR   Marginal VFR   IFR   Intensive IFR   Very Intensive IFR
Visi :
Ceiling :
>= 8 km
>= 3000ft
5 to 8 km
1000 to 3000 ft
1500m to 5 km
500 to 1000 ft
800 to 1500m
200 to 500 ft
< 800m
< 200 ft
Symbols :   Thunderstorms  Fog  Heavy snow  Heavy precipitations  Wind > 20 kt






- Airport Elevation : 1129 ft
- IATA code : YYF


CYYF - Penticton

CURRENT METAR :
  • 232200Z 15013G18KT 12SM FEW012 BKN023 BKN045 05/03 A2998 RMK SF2SC3SC2 SH S SLP164

EXPIRED METARs :
  • 232137Z 15013G19KT 12SM VCSH FEW013 SCT021 BKN035 05/03 A2998 RMK SF2SC2SC3 SLP165
  • 232100Z 17011G18KT 15SM -RA FEW016 BKN034 OVC080 04/03 A2999 RMK SF2SC5AC1 SLP170
  • 232048Z 16016G23KT 15SM -RA FEW016 BKN034 OVC080 05/03 A2999 RMK SF2SC5AC1 SLP168
  • 232000Z 15016G21KT 15SM FEW016 BKN035 OVC080 05/03 A3000 RMK SF2SC4AC2 SH S SLP173

TAF TAF CYYF
Valid from the 23 at 19:00 until the 24 at 07:00 UTC


231838Z 2319/2407 16012G22KT P6SM SCT012 BKN030
TEMPO 2319/2407 4SM -RA BR BKN012
BECMG 2321/2323 18015G25KT RMK NXT FCST BY 240100Z



MET'MAP, your aeronautical weather chart ! - Copyright ORBIFLY December 2007 - Disclaimer

ORBIFLY MET'MAP TEAM :

Programming & Development : Alexandra Zaïnal
Concept & original design : Baudouin d'Aumeries
Assistance for programming : Marc-Olivier Méhu
Technical & hardware support : Manuel Goepfert

Contact : metmap@orbifly.com




SOURCES & CREDITS :

   NOAA       Earth
Advisory